Holman, New Mexico
Current Conditions -  °F | °C
As of 8:55 PM on Sunday 23 Nov 2014 (Local Time) from KAXX Reporting Station
Broken Clouds Broken Clouds  
Wind Chill:   Ceiling: 6000
Heat Index: 17°   Visibility: 10mi
Dew Point:   Wind: 12mph
Humidity: 64%   Direction: 20°NNE
Pressure: 29.94"   Gusts: NA
Location:  36.04°N, 105.39°W
Report Text: KAXX 240355Z AUTO 02010KT 10SM SCT023 SCT038 BKN060 M08/M14 A2994 RMK AO2 T10851142
Loading
Personal Weather Stations






























Interactive Weather Map New forecast layout! Learn more

10-Day Weather Forecast

Advertisements
Track Severe Weather on mobile